首页
METAR-TAF:

METAR-TAF

机场 :

萊蒂西亞, 哥伦比亚

纬度: 04-10S, 经度: 069-57W, 海拔: 84米

当前天气观测

该预报发布于41分钟前的01:00 UTC
静风
温度 24°C
湿度 100%
气压 1011 hPa
能见度10公里或以上
散云层高于1000英尺

METAR: SKLT 250100Z 00000KT 9999 SCT010 24/24 Q1011

时间: 20:41 (01:41 UTC)

预报

该预报发布于3小时和11分钟前的22:30 UTC
预报有效从25日的 00点(UTC)到 25日的 24点(UTC)
风速2节,风向多变
能见度10公里或以上
散云层高于1500英尺
短暂存在
从 25日的 00点(UTC)到 25日的 03点(UTC)
多云层高于1000英尺
雷暴, 雨
短暂存在
从 25日的 10点(UTC)到 25日的 12点(UTC)
能見度: 4000
多云层高于800英尺
轻雾,

TAF: SKLT 242230Z 2500/2524 VRB02KT 9999 SCT015 TEMPO 2500/2503 TSRA BKN010 TEMPO 2510/2512 4000 BR BKN008 TX33/2518Z TN24/2510Z

超过4000个机场的气象观测和天气预报(METAR&TAF报告)。

可查询的气象台以黄色和红色小点在地图上表示。

将鼠标移到小点上方,可查看气象台名称。

然后点击查看天气观测和预报。

如需切换地图:点击带黑十字的绿色按钮放大地图;点击带横线的绿色按钮缩小地图;或者点击绿色箭头查看邻近地区的地图。


METAR-TAF: